Time;durP1;ratioP1;P1;durP2;ratioP2;P2;SDS_P1;SDS_P2;PMS_P1;PMS_P2;Temp;Humidity;BMP_temperature;BMP_pressure;BME280_temperature;BME280_humidity;BME280_pressure;Samples;Min_cycle;Max_cycle;Signal;HPM_P1;HPM_P2
2024/01/29 00:00:19;;;;;;;0.55;0.55;;;;;;;;;;4973417;28;20089;-79
2024/01/29 00:02:47;;;;;;;0.57;0.57;;;;;;;;;;4964287;28;20516;-79
2024/01/29 00:05:15;;;;;;;0.45;0.45;;;;;;;;;;4986226;28;20046;-79
2024/01/29 00:07:42;;;;;;;0.80;0.77;;;;;;;;;;4989089;28;20091;-79
2024/01/29 00:10:10;;;;;;;0.45;0.45;;;;;;;;;;4995449;28;20042;-79
2024/01/29 00:12:37;;;;;;;0.10;0.10;;;;;;;;;;4997610;28;20077;-79
2024/01/29 00:15:05;;;;;;;0.32;0.32;;;;;;;;;;4990479;28;20069;-79
2024/01/29 00:17:32;;;;;;;0.63;0.63;;;;;;;;;;4989395;28;20070;-79
2024/01/29 00:20:00;;;;;;;0.55;0.55;;;;;;;;;;4993586;28;20253;-79
2024/01/29 00:22:28;;;;;;;0.90;0.50;;;;;;;;;;4996557;28;20085;-79
2024/01/29 00:24:55;;;;;;;0.90;0.90;;;;;;;;;;4993370;28;20043;-79
2024/01/29 00:27:23;;;;;;;0.32;0.32;;;;;;;;;;4993200;28;20082;-79
2024/01/29 00:29:51;;;;;;;0.10;0.10;;;;;;;;;;4988649;28;20109;-79
2024/01/29 00:32:18;;;;;;;0.88;0.88;;;;;;;;;;4986701;28;20046;-79
2024/01/29 00:34:46;;;;;;;1.70;1.30;;;;;;;;;;4979232;28;20053;-79
2024/01/29 00:37:13;;;;;;;0.30;0.30;;;;;;;;;;4993293;28;20054;-79
2024/01/29 00:39:41;;;;;;;0.20;0.20;;;;;;;;;;4992634;28;20050;-76
2024/01/29 00:42:08;;;;;;;1.55;1.45;;;;;;;;;;4997799;28;20496;-79
2024/01/29 00:44:36;;;;;;;0.63;0.63;;;;;;;;;;4996188;28;20053;-79
2024/01/29 00:47:03;;;;;;;0.80;0.80;;;;;;;;;;4992478;28;20049;-79
2024/01/29 00:49:31;;;;;;;0.28;0.28;;;;;;;;;;4994530;28;20118;-79
2024/01/29 00:51:59;;;;;;;0.70;0.70;;;;;;;;;;4986195;28;20493;-79
2024/01/29 00:54:27;;;;;;;2.05;1.95;;;;;;;;;;4995459;28;20046;-79
2024/01/29 00:56:54;;;;;;;0.20;0.20;;;;;;;;;;4980724;28;20054;-79
2024/01/29 00:59:22;;;;;;;0.45;0.45;;;;;;;;;;4991461;28;20481;-79
2024/01/29 01:01:49;;;;;;;1.90;1.58;;;;;;;;;;4979960;28;20043;-79
2024/01/29 01:04:17;;;;;;;1.02;0.85;;;;;;;;;;4994006;28;20053;-79
2024/01/29 01:06:45;;;;;;;0.20;0.20;;;;;;;;;;4992560;28;20051;-79
2024/01/29 01:09:14;;;;;;;0.55;0.55;;;;;;;;;;4989851;28;20133;-79
2024/01/29 01:11:42;;;;;;;1.10;0.85;;;;;;;;;;4990012;28;20133;-78
2024/01/29 01:14:10;;;;;;;0.20;0.20;;;;;;;;;;4984108;28;20449;-79
2024/01/29 01:16:37;;;;;;;0.10;0.10;;;;;;;;;;4990144;28;20104;-78
2024/01/29 01:19:05;;;;;;;0.43;0.43;;;;;;;;;;4973764;28;20577;-79
2024/01/29 01:21:32;;;;;;;0.50;0.50;;;;;;;;;;4985182;28;20054;-79
2024/01/29 01:24:01;;;;;;;1.45;1.08;;;;;;;;;;4987619;28;20074;-79
2024/01/29 01:26:28;;;;;;;0.22;0.22;;;;;;;;;;4985284;28;20114;-78
2024/01/29 01:28:56;;;;;;;0.55;0.55;;;;;;;;;;4984850;28;20048;-79
2024/01/29 01:31:23;;;;;;;0.35;0.35;;;;;;;;;;4983514;28;20125;-79
2024/01/29 01:33:50;;;;;;;0.80;0.75;;;;;;;;;;4984196;28;20055;-78
2024/01/29 01:36:18;;;;;;;2.25;1.63;;;;;;;;;;4981821;28;20047;-78
2024/01/29 01:38:45;;;;;;;0.20;0.20;;;;;;;;;;4983466;28;20535;-78
2024/01/29 01:41:13;;;;;;;0.73;0.73;;;;;;;;;;4970963;28;20085;-79
2024/01/29 01:43:40;;;;;;;1.00;0.55;;;;;;;;;;4992590;28;20057;-79
2024/01/29 01:46:22;;;;;;;0.40;0.40;;;;;;;;;;4965408;28;20054;-78
2024/01/29 01:48:54;;;;;;;0.68;0.68;;;;;;;;;;4984529;28;20038;-79
2024/01/29 01:51:23;;;;;;;0.20;0.20;;;;;;;;;;4985767;28;20123;-79
2024/01/29 01:53:52;;;;;;;3.83;3.60;;;;;;;;;;4987035;28;20553;-79
2024/01/29 01:56:20;;;;;;;0.17;0.17;;;;;;;;;;4966851;28;20051;-79
2024/01/29 01:58:47;;;;;;;0.40;0.40;;;;;;;;;;4962176;28;20138;-78
2024/01/29 02:01:15;;;;;;;0.57;0.57;;;;;;;;;;4985105;28;20128;-78
2024/01/29 02:03:43;;;;;;;0.57;0.55;;;;;;;;;;4984533;28;20132;-78
2024/01/29 02:06:11;;;;;;;0.73;0.70;;;;;;;;;;4977683;28;20121;-78
2024/01/29 02:08:39;;;;;;;1.15;1.05;;;;;;;;;;4965106;28;20092;-79
2024/01/29 02:11:06;;;;;;;0.80;0.80;;;;;;;;;;4988134;28;20046;-78
2024/01/29 02:13:34;;;;;;;1.77;1.55;;;;;;;;;;4985185;28;20474;-78
2024/01/29 02:16:02;;;;;;;0.47;0.47;;;;;;;;;;4981989;28;20046;-78
2024/01/29 02:18:30;;;;;;;0.10;0.10;;;;;;;;;;4986938;28;20109;-78
2024/01/29 02:20:58;;;;;;;1.00;0.57;;;;;;;;;;4970028;28;20416;-78
2024/01/29 02:23:26;;;;;;;2.10;0.57;;;;;;;;;;4990570;28;20062;-78
2024/01/29 02:25:53;;;;;;;0.17;0.17;;;;;;;;;;4985528;28;20558;-79
2024/01/29 02:28:23;;;;;;;0.47;0.47;;;;;;;;;;4986099;28;20433;-79
2024/01/29 02:30:50;;;;;;;0.57;0.57;;;;;;;;;;4990312;28;20416;-78
2024/01/29 02:33:19;;;;;;;2.50;1.75;;;;;;;;;;4986640;28;20116;-78
2024/01/29 02:35:46;;;;;;;0.17;0.17;;;;;;;;;;4968580;28;20077;-79
2024/01/29 02:38:14;;;;;;;0.15;0.15;;;;;;;;;;4974932;28;20697;-78
2024/01/29 02:40:41;;;;;;;1.40;1.25;;;;;;;;;;4982211;28;20070;-78
2024/01/29 02:43:09;;;;;;;1.00;0.70;;;;;;;;;;4988358;28;20054;-79
2024/01/29 02:45:36;;;;;;;0.43;0.43;;;;;;;;;;4973948;28;20042;-78
2024/01/29 02:48:04;;;;;;;0.45;0.45;;;;;;;;;;4983951;28;20417;-79
2024/01/29 02:50:32;;;;;;;1.63;0.98;;;;;;;;;;4982145;28;20039;-78
2024/01/29 02:53:00;;;;;;;0.20;0.20;;;;;;;;;;4976227;28;20423;-78
2024/01/29 02:55:27;;;;;;;0.80;0.80;;;;;;;;;;4978708;28;20129;-79
2024/01/29 02:57:55;;;;;;;0.77;0.77;;;;;;;;;;4990537;28;20463;-79
2024/01/29 03:00:22;;;;;;;1.02;1.02;;;;;;;;;;4986563;28;20046;-79
2024/01/29 03:02:50;;;;;;;0.82;0.70;;;;;;;;;;4995342;28;20113;-78
2024/01/29 03:05:18;;;;;;;1.35;1.25;;;;;;;;;;4991759;28;20046;-78
2024/01/29 03:07:45;;;;;;;0.88;0.85;;;;;;;;;;4985196;28;20359;-79
2024/01/29 03:10:12;;;;;;;1.98;0.93;;;;;;;;;;4984856;28;20038;-79
2024/01/29 03:12:40;;;;;;;0.77;0.65;;;;;;;;;;4983288;28;20406;-78
2024/01/29 03:15:07;;;;;;;0.20;0.20;;;;;;;;;;4959041;28;20053;-78
2024/01/29 03:17:35;;;;;;;1.58;1.48;;;;;;;;;;4972560;28;20071;-78
2024/01/29 03:20:03;;;;;;;0.10;0.10;;;;;;;;;;4986285;28;20132;-78
2024/01/29 03:22:31;;;;;;;0.10;0.10;;;;;;;;;;4983704;28;20051;-78
2024/01/29 03:24:58;;;;;;;0.60;0.60;;;;;;;;;;4980702;28;20153;-77
2024/01/29 03:27:26;;;;;;;0.20;0.20;;;;;;;;;;4967321;28;20048;-77
2024/01/29 03:29:53;;;;;;;0.35;0.35;;;;;;;;;;4984050;28;20050;-77
2024/01/29 03:32:21;;;;;;;1.95;0.75;;;;;;;;;;4986526;28;20065;-77
2024/01/29 03:34:48;;;;;;;1.65;1.05;;;;;;;;;;4971588;28;20054;-77
2024/01/29 03:37:16;;;;;;;0.93;0.93;;;;;;;;;;4967219;28;20092;-77
2024/01/29 03:39:43;;;;;;;0.85;0.85;;;;;;;;;;4983681;28;20054;-78
2024/01/29 03:42:10;;;;;;;2.13;1.80;;;;;;;;;;4965399;28;21103;-77
2024/01/29 03:44:38;;;;;;;0.60;0.60;;;;;;;;;;4983273;28;20420;-77
2024/01/29 03:47:06;;;;;;;0.50;0.50;;;;;;;;;;4985660;28;20508;-78
2024/01/29 03:49:33;;;;;;;1.88;1.42;;;;;;;;;;4972825;28;20054;-77
2024/01/29 03:52:01;;;;;;;0.20;0.20;;;;;;;;;;4972626;28;20094;-78
2024/01/29 03:54:28;;;;;;;0.47;0.47;;;;;;;;;;4976879;28;24231;-78
2024/01/29 03:56:56;;;;;;;0.40;0.40;;;;;;;;;;4977737;28;20640;-77
2024/01/29 03:59:24;;;;;;;0.28;0.28;;;;;;;;;;4983962;28;20069;-77
2024/01/29 04:01:51;;;;;;;0.10;0.10;;;;;;;;;;4980332;28;20054;-80
2024/01/29 04:04:19;;;;;;;0.52;0.52;;;;;;;;;;4980931;28;20058;-77
2024/01/29 04:06:48;;;;;;;0.10;0.10;;;;;;;;;;4980213;28;20043;-80
2024/01/29 04:09:20;;;;;;;0.80;0.80;;;;;;;;;;4986043;28;20070;-78
2024/01/29 04:11:50;;;;;;;1.27;0.63;;;;;;;;;;4975224;28;20130;-78
2024/01/29 04:14:18;;;;;;;0.10;0.10;;;;;;;;;;4982303;28;20078;-78
2024/01/29 04:16:50;;;;;;;1.33;1.23;;;;;;;;;;4976792;28;20129;-77
2024/01/29 04:19:17;;;;;;;0.40;0.40;;;;;;;;;;4987378;28;20058;-78
2024/01/29 04:21:45;;;;;;;1.25;1.17;;;;;;;;;;4970226;28;20132;-78
2024/01/29 04:24:13;;;;;;;0.47;0.47;;;;;;;;;;4982525;28;20164;-78
2024/01/29 04:26:41;;;;;;;2.38;0.52;;;;;;;;;;4988524;28;20046;-78
2024/01/29 04:29:09;;;;;;;0.85;0.85;;;;;;;;;;4988153;28;20041;-78
2024/01/29 04:31:37;;;;;;;0.15;0.15;;;;;;;;;;4980853;28;20862;-78
2024/01/29 04:34:04;;;;;;;0.63;0.63;;;;;;;;;;4978468;28;20046;-78
2024/01/29 04:36:32;;;;;;;1.48;1.38;;;;;;;;;;4979880;28;20046;-78
2024/01/29 04:39:00;;;;;;;0.82;0.80;;;;;;;;;;4985212;28;20472;-78
2024/01/29 04:41:27;;;;;;;0.28;0.28;;;;;;;;;;4994282;28;20054;-78
2024/01/29 04:43:55;;;;;;;0.90;0.88;;;;;;;;;;4983034;28;20054;-78
2024/01/29 04:46:23;;;;;;;0.40;0.40;;;;;;;;;;4965468;28;20085;-79
2024/01/29 04:48:51;;;;;;;2.03;0.75;;;;;;;;;;4986267;28;20050;-78
2024/01/29 04:51:20;;;;;;;0.50;0.47;;;;;;;;;;4987486;28;20073;-80
2024/01/29 04:53:48;;;;;;;0.50;0.50;;;;;;;;;;4973345;28;20039;-80
2024/01/29 04:56:16;;;;;;;1.60;1.23;;;;;;;;;;4983987;28;20280;-80
2024/01/29 04:58:43;;;;;;;0.75;0.60;;;;;;;;;;4988117;28;20140;-79
2024/01/29 05:01:11;;;;;;;0.20;0.20;;;;;;;;;;4979539;28;20068;-79
2024/01/29 05:03:38;;;;;;;0.25;0.25;;;;;;;;;;4980115;28;20453;-80
2024/01/29 05:06:06;;;;;;;0.40;0.40;;;;;;;;;;4967550;28;20054;-80
2024/01/29 05:08:36;;;;;;;0.57;0.57;;;;;;;;;;4986313;28;20305;-80
2024/01/29 05:11:03;;;;;;;0.98;0.98;;;;;;;;;;4964709;28;20144;-79
2024/01/29 05:13:31;;;;;;;0.75;0.73;;;;;;;;;;4978757;28;20038;-79
2024/01/29 05:15:58;;;;;;;0.68;0.68;;;;;;;;;;4988118;28;20046;-80
2024/01/29 05:18:26;;;;;;;0.70;0.70;;;;;;;;;;4980034;28;20058;-79
2024/01/29 05:20:53;;;;;;;1.17;1.08;;;;;;;;;;4984929;28;20129;-79
2024/01/29 05:23:20;;;;;;;1.00;1.00;;;;;;;;;;4983668;28;20047;-80
2024/01/29 05:25:48;;;;;;;1.60;0.63;;;;;;;;;;4956354;28;20058;-79
2024/01/29 05:28:16;;;;;;;0.60;0.60;;;;;;;;;;4992898;28;20050;-80
2024/01/29 05:30:43;;;;;;;0.13;0.13;;;;;;;;;;4974065;28;20038;-79
2024/01/29 05:33:11;;;;;;;1.35;1.25;;;;;;;;;;4992205;28;20048;-79
2024/01/29 05:35:53;;;;;;;1.35;1.25;;;;;;;;;;4992971;28;20459;-80
2024/01/29 05:38:20;;;;;;;0.60;0.60;;;;;;;;;;4989963;28;20061;-80
2024/01/29 05:40:48;;;;;;;2.42;1.13;;;;;;;;;;4989070;28;20062;-82
2024/01/29 05:43:16;;;;;;;0.77;0.65;;;;;;;;;;4962327;28;20540;-80
2024/01/29 05:45:43;;;;;;;4.25;3.90;;;;;;;;;;4984951;28;20116;-80
2024/01/29 05:48:11;;;;;;;0.95;0.95;;;;;;;;;;4988203;28;20562;-79
2024/01/29 05:50:38;;;;;;;1.92;1.08;;;;;;;;;;4986281;28;20042;-80
2024/01/29 05:53:07;;;;;;;0.77;0.77;;;;;;;;;;4974117;28;20040;-80
2024/01/29 05:55:34;;;;;;;1.55;0.77;;;;;;;;;;4967891;28;20524;-80
2024/01/29 05:58:01;;;;;;;1.00;0.85;;;;;;;;;;4968603;28;20050;-80
2024/01/29 06:00:30;;;;;;;0.70;0.70;;;;;;;;;;4985317;28;20464;-81
2024/01/29 06:02:57;;;;;;;2.58;1.83;;;;;;;;;;4987354;28;20046;-80
2024/01/29 06:05:25;;;;;;;0.70;0.70;;;;;;;;;;4974615;28;20085;-79
2024/01/29 06:07:54;;;;;;;0.50;0.50;;;;;;;;;;4993011;28;20080;-80
2024/01/29 06:10:22;;;;;;;1.55;1.40;;;;;;;;;;4989908;28;20057;-80
2024/01/29 06:12:49;;;;;;;0.75;0.50;;;;;;;;;;4975888;28;20220;-80
2024/01/29 06:15:17;;;;;;;0.55;0.55;;;;;;;;;;4984694;28;20053;-80
2024/01/29 06:17:44;;;;;;;1.00;0.90;;;;;;;;;;4961434;28;20062;-81
2024/01/29 06:20:12;;;;;;;1.75;1.27;;;;;;;;;;4975985;28;20421;-80
2024/01/29 06:22:45;;;;;;;1.77;1.65;;;;;;;;;;4983035;28;20042;-80
2024/01/29 06:25:13;;;;;;;2.60;2.40;;;;;;;;;;4958229;28;20050;-81
2024/01/29 06:27:41;;;;;;;1.45;1.30;;;;;;;;;;4978454;28;20074;-80
2024/01/29 06:30:09;;;;;;;3.50;2.38;;;;;;;;;;4967819;28;20105;-81
2024/01/29 06:32:37;;;;;;;4.78;2.97;;;;;;;;;;4960965;28;20450;-81
2024/01/29 06:35:07;;;;;;;2.17;1.98;;;;;;;;;;4948767;28;20062;-82
2024/01/29 06:37:35;;;;;;;1.30;1.23;;;;;;;;;;4982999;28;20050;-80
2024/01/29 06:40:03;;;;;;;2.10;1.95;;;;;;;;;;4981740;28;20097;-80
2024/01/29 06:42:31;;;;;;;2.47;2.20;;;;;;;;;;4982423;28;20398;-81
2024/01/29 06:44:59;;;;;;;1.25;1.15;;;;;;;;;;4982961;28;20109;-81
2024/01/29 06:47:27;;;;;;;0.80;0.80;;;;;;;;;;4979948;28;20057;-80
2024/01/29 06:49:58;;;;;;;0.20;0.20;;;;;;;;;;4979701;28;20057;-81
2024/01/29 06:52:27;;;;;;;1.75;1.45;;;;;;;;;;4979208;28;20461;-80
2024/01/29 06:54:55;;;;;;;1.63;1.52;;;;;;;;;;4981232;28;20042;-80
2024/01/29 06:57:23;;;;;;;1.73;1.63;;;;;;;;;;4980050;28;20062;-81
2024/01/29 06:59:50;;;;;;;1.50;1.40;;;;;;;;;;4974826;28;20053;-80
2024/01/29 07:02:17;;;;;;;1.55;1.35;;;;;;;;;;4976253;28;20140;-80
2024/01/29 07:04:45;;;;;;;4.75;2.00;;;;;;;;;;4973898;28;20047;-80
2024/01/29 07:07:12;;;;;;;1.88;1.75;;;;;;;;;;4963252;28;20069;-80
2024/01/29 07:09:42;;;;;;;1.55;0.80;;;;;;;;;;4964263;28;20113;-82
2024/01/29 07:12:10;;;;;;;2.65;2.45;;;;;;;;;;4984937;28;20121;-80
2024/01/29 07:14:37;;;;;;;0.80;0.80;;;;;;;;;;4969257;28;20053;-80
2024/01/29 07:17:08;;;;;;;1.77;1.67;;;;;;;;;;4985962;28;20070;-80
2024/01/29 07:19:36;;;;;;;3.40;1.08;;;;;;;;;;4971440;28;20044;-81
2024/01/29 07:22:08;;;;;;;1.33;1.30;;;;;;;;;;4974139;28;20047;-81
2024/01/29 07:24:36;;;;;;;1.13;1.13;;;;;;;;;;4983180;28;20038;-81
2024/01/29 07:27:04;;;;;;;1.65;1.42;;;;;;;;;;4960608;28;20062;-80
2024/01/29 07:29:32;;;;;;;1.40;1.10;;;;;;;;;;4980096;28;20046;-81
2024/01/29 07:31:59;;;;;;;0.55;0.55;;;;;;;;;;4986377;28;20053;-80
2024/01/29 07:34:27;;;;;;;1.45;1.35;;;;;;;;;;4989001;28;20039;-81
2024/01/29 07:36:55;;;;;;;1.85;1.63;;;;;;;;;;4968589;28;20122;-81
2024/01/29 07:39:22;;;;;;;1.30;1.20;;;;;;;;;;4971850;28;20057;-80
2024/01/29 07:41:50;;;;;;;2.28;1.15;;;;;;;;;;4974869;28;20116;-81
2024/01/29 07:44:17;;;;;;;1.17;1.00;;;;;;;;;;4986075;28;20058;-81
2024/01/29 07:46:45;;;;;;;1.98;1.60;;;;;;;;;;4956258;28;20076;-81
2024/01/29 07:49:12;;;;;;;2.42;2.22;;;;;;;;;;4970766;28;20100;-80
2024/01/29 07:51:40;;;;;;;3.75;3.38;;;;;;;;;;4991558;28;20046;-81
2024/01/29 07:54:08;;;;;;;2.30;2.10;;;;;;;;;;4987567;28;20396;-81
2024/01/29 07:56:42;;;;;;;2.25;1.90;;;;;;;;;;4984552;28;20050;-82
2024/01/29 07:59:18;;;;;;;3.92;1.95;;;;;;;;;;4987161;28;20528;-81
2024/01/29 08:01:47;;;;;;;2.10;2.00;;;;;;;;;;4984462;28;20083;-81
2024/01/29 08:04:16;;;;;;;1.30;1.25;;;;;;;;;;4985444;28;20475;-80
2024/01/29 08:06:52;;;;;;;0.80;0.80;;;;;;;;;;4983357;28;20093;-80
2024/01/29 08:09:20;;;;;;;4.60;4.28;;;;;;;;;;4982797;28;20046;-80
2024/01/29 08:11:47;;;;;;;0.73;0.73;;;;;;;;;;4985273;28;20078;-80
2024/01/29 08:14:15;;;;;;;2.67;2.45;;;;;;;;;;4952100;28;20074;-81
2024/01/29 08:16:42;;;;;;;1.63;1.52;;;;;;;;;;4967676;28;20034;-80
2024/01/29 08:19:10;;;;;;;6.65;2.85;;;;;;;;;;4969872;28;20062;-80
2024/01/29 08:21:38;;;;;;;1.55;1.45;;;;;;;;;;4977922;28;20050;-80
2024/01/29 08:24:05;;;;;;;0.38;0.38;;;;;;;;;;4998190;28;20042;-80
2024/01/29 08:26:34;;;;;;;0.52;0.52;;;;;;;;;;4993895;28;20050;-80
2024/01/29 08:29:02;;;;;;;0.73;0.73;;;;;;;;;;4992561;28;20054;-81
2024/01/29 08:31:30;;;;;;;1.42;1.33;;;;;;;;;;4977162;28;20128;-78
2024/01/29 08:33:58;;;;;;;1.17;1.17;;;;;;;;;;4984578;28;20437;-79
2024/01/29 08:36:26;;;;;;;4.13;3.65;;;;;;;;;;4950530;28;20128;-79
2024/01/29 08:38:53;;;;;;;0.77;0.77;;;;;;;;;;4964902;28;20062;-78
2024/01/29 08:41:21;;;;;;;4.60;3.10;;;;;;;;;;4983585;28;20056;-79
2024/01/29 08:43:48;;;;;;;2.92;2.55;;;;;;;;;;4986147;28;20128;-79
2024/01/29 08:46:16;;;;;;;1.98;1.77;;;;;;;;;;4971492;28;20058;-79
2024/01/29 08:48:43;;;;;;;1.23;1.08;;;;;;;;;;4975309;28;20446;-78
2024/01/29 08:51:11;;;;;;;3.53;3.03;;;;;;;;;;4974264;28;20038;-78
2024/01/29 08:53:38;;;;;;;2.60;1.55;;;;;;;;;;4972021;28;20046;-79
2024/01/29 08:56:09;;;;;;;1.35;1.35;;;;;;;;;;4969672;28;20081;-79
2024/01/29 08:58:36;;;;;;;3.70;2.60;;;;;;;;;;4988277;28;20042;-79
2024/01/29 09:01:04;;;;;;;1.02;1.00;;;;;;;;;;4985282;28;20047;-79
2024/01/29 09:03:32;;;;;;;2.17;2.08;;;;;;;;;;4985526;28;20512;-79
2024/01/29 09:05:59;;;;;;;2.40;2.20;;;;;;;;;;4967628;28;20053;-79
2024/01/29 09:08:28;;;;;;;5.38;4.00;;;;;;;;;;4986681;28;20304;-80
2024/01/29 09:10:55;;;;;;;1.00;1.00;;;;;;;;;;4986220;28;20046;-79
2024/01/29 09:13:25;;;;;;;2.05;1.27;;;;;;;;;;4971100;28;20119;-80
2024/01/29 09:15:53;;;;;;;1.27;1.00;;;;;;;;;;4985711;28;20042;-80
2024/01/29 09:18:21;;;;;;;2.35;2.15;;;;;;;;;;4972048;28;20046;-79
2024/01/29 09:20:48;;;;;;;0.82;0.82;;;;;;;;;;4990151;28;20132;-79
2024/01/29 09:23:16;;;;;;;2.45;2.28;;;;;;;;;;4988139;28;20566;-80
2024/01/29 09:25:43;;;;;;;2.35;2.15;;;;;;;;;;4982877;28;20050;-80
2024/01/29 09:28:11;;;;;;;1.10;1.10;;;;;;;;;;4982246;28;20532;-80
2024/01/29 09:30:38;;;;;;;3.05;1.75;;;;;;;;;;4986277;28;20050;-81
2024/01/29 09:33:08;;;;;;;0.90;0.90;;;;;;;;;;4983923;28;20042;-81
2024/01/29 09:36:09;;;;;;;0.98;0.98;;;;;;;;;;4981003;28;20057;-80
2024/01/29 09:38:36;;;;;;;2.55;1.77;;;;;;;;;;4984781;28;20042;-80
2024/01/29 09:41:04;;;;;;;1.58;1.38;;;;;;;;;;4963289;28;20137;-80
2024/01/29 09:43:34;;;;;;;0.70;0.70;;;;;;;;;;4984079;28;20049;-80
2024/01/29 09:46:03;;;;;;;0.75;0.65;;;;;;;;;;4980722;28;20042;-80
2024/01/29 09:48:33;;;;;;;0.35;0.35;;;;;;;;;;4988450;28;20313;-80
2024/01/29 09:51:01;;;;;;;0.57;0.57;;;;;;;;;;4991832;28;20086;-78
2024/01/29 09:53:29;;;;;;;0.70;0.70;;;;;;;;;;4987992;28;20397;-80
2024/01/29 09:55:57;;;;;;;0.30;0.30;;;;;;;;;;4983185;28;20046;-80
2024/01/29 09:58:24;;;;;;;1.85;1.75;;;;;;;;;;4981756;28;20078;-80
2024/01/29 10:00:55;;;;;;;0.77;0.77;;;;;;;;;;4986907;28;20049;-80
2024/01/29 10:03:40;;;;;;;1.55;1.42;;;;;;;;;;4987543;28;20169;-80
2024/01/29 10:06:08;;;;;;;1.40;0.40;;;;;;;;;;4952896;28;20401;-80
2024/01/29 10:08:37;;;;;;;0.52;0.52;;;;;;;;;;4985350;28;20137;-79
2024/01/29 10:11:05;;;;;;;1.52;1.08;;;;;;;;;;4970733;28;20433;-80
2024/01/29 10:13:34;;;;;;;2.08;1.40;;;;;;;;;;4972116;28;20053;-80
2024/01/29 10:16:01;;;;;;;0.95;0.95;;;;;;;;;;4988250;28;20074;-80
2024/01/29 10:18:30;;;;;;;1.52;1.42;;;;;;;;;;4983125;28;20062;-79
2024/01/29 10:21:01;;;;;;;0.77;0.45;;;;;;;;;;4954404;28;20470;-79
2024/01/29 10:23:30;;;;;;;0.25;0.25;;;;;;;;;;4989716;28;20053;-79
2024/01/29 10:25:59;;;;;;;0.28;0.28;;;;;;;;;;4986184;28;20130;-79
2024/01/29 10:28:27;;;;;;;0.32;0.32;;;;;;;;;;4983458;28;20053;-80
2024/01/29 10:30:55;;;;;;;0.85;0.85;;;;;;;;;;4982327;28;20393;-81
2024/01/29 10:33:25;;;;;;;0.38;0.38;;;;;;;;;;4982412;28;20055;-80
2024/01/29 10:35:52;;;;;;;0.70;0.70;;;;;;;;;;4981194;28;20043;-80
2024/01/29 10:38:23;;;;;;;0.88;0.88;;;;;;;;;;4986917;28;20042;-80
2024/01/29 10:40:51;;;;;;;6.75;2.53;;;;;;;;;;4973427;28;20050;-81
2024/01/29 10:43:19;;;;;;;1.65;1.55;;;;;;;;;;4986687;28;20515;-80
2024/01/29 10:45:49;;;;;;;1.80;1.65;;;;;;;;;;4959198;28;20706;-80
2024/01/29 10:48:19;;;;;;;;;;;;;;;;;;4972760;28;20085;-80
2024/01/29 10:50:47;;;;;;;0.77;0.63;;;;;;;;;;4994071;28;20430;-80
2024/01/29 10:53:16;;;;;;;0.20;0.20;;;;;;;;;;4974122;28;20463;-80
2024/01/29 10:55:50;;;;;;;1.55;1.08;;;;;;;;;;4984178;28;20157;-80
2024/01/29 10:58:18;;;;;;;0.40;0.40;;;;;;;;;;4988737;28;20046;-79
2024/01/29 11:00:46;;;;;;;1.30;1.23;;;;;;;;;;4987364;28;20053;-79
2024/01/29 11:03:14;;;;;;;1.00;1.00;;;;;;;;;;4975095;28;20054;-80
2024/01/29 11:05:43;;;;;;;3.60;2.83;;;;;;;;;;4971089;28;20050;-81
2024/01/29 11:08:16;;;;;;;7.38;1.70;;;;;;;;;;4982567;28;20200;-80
2024/01/29 11:10:44;;;;;;;1.05;1.02;;;;;;;;;;4987691;28;20612;-83
2024/01/29 11:13:12;;;;;;;1.05;1.05;;;;;;;;;;4993691;28;20077;-81
2024/01/29 11:15:41;;;;;;;2.55;2.35;;;;;;;;;;4992016;28;20046;-81
2024/01/29 11:18:10;;;;;;;4.13;2.85;;;;;;;;;;4979881;28;20100;-80
2024/01/29 11:20:39;;;;;;;3.08;2.80;;;;;;;;;;4952120;28;20053;-80
2024/01/29 11:23:09;;;;;;;7.20;4.63;;;;;;;;;;4962088;28;20108;-80
2024/01/29 11:25:51;;;;;;;3.60;1.83;;;;;;;;;;4979548;28;20059;-81
2024/01/29 11:28:19;;;;;;;3.95;1.65;;;;;;;;;;4983048;28;20053;-78
2024/01/29 11:30:50;;;;;;;1.85;1.73;;;;;;;;;;4987245;28;20584;-79
2024/01/29 11:33:18;;;;;;;1.65;1.55;;;;;;;;;;4982948;28;20046;-79
2024/01/29 11:35:49;;;;;;;0.50;0.50;;;;;;;;;;4987437;28;20101;-78
2024/01/29 11:38:22;;;;;;;2.50;1.13;;;;;;;;;;4989546;28;20046;-79
2024/01/29 11:40:50;;;;;;;1.52;1.30;;;;;;;;;;4982158;28;20060;-79
2024/01/29 11:43:18;;;;;;;5.20;0.95;;;;;;;;;;4986742;28;20116;-79
2024/01/29 11:45:46;;;;;;;2.28;2.08;;;;;;;;;;4969965;28;20049;-79
2024/01/29 11:48:15;;;;;;;1.60;1.50;;;;;;;;;;4955145;28;20061;-79
2024/01/29 11:50:45;;;;;;;0.30;0.30;;;;;;;;;;4975703;28;20116;-80
2024/01/29 11:53:14;;;;;;;0.40;0.40;;;;;;;;;;4970351;28;20548;-79
2024/01/29 11:55:42;;;;;;;0.60;0.60;;;;;;;;;;4984106;28;20066;-80
2024/01/29 11:58:13;;;;;;;0.50;0.50;;;;;;;;;;4969839;28;20556;-79
2024/01/29 12:00:43;;;;;;;1.45;1.35;;;;;;;;;;4983341;28;20054;-79
2024/01/29 12:03:11;;;;;;;0.98;0.85;;;;;;;;;;4987498;28;20081;-79
2024/01/29 12:05:40;;;;;;;0.85;0.85;;;;;;;;;;4991321;28;20042;-80
2024/01/29 12:08:17;;;;;;;0.40;0.32;;;;;;;;;;4974875;28;20416;-79
2024/01/29 12:10:45;;;;;;;0.80;0.80;;;;;;;;;;4988294;28;20038;-79
2024/01/29 12:13:20;;;;;;;0.82;0.82;;;;;;;;;;4990757;28;20042;-79
2024/01/29 12:15:50;;;;;;;1.55;1.45;;;;;;;;;;4987344;28;20039;-80
2024/01/29 12:18:19;;;;;;;0.68;0.68;;;;;;;;;;4975164;28;20341;-80
2024/01/29 12:20:47;;;;;;;1.05;1.05;;;;;;;;;;4990033;28;20197;-79
2024/01/29 12:23:16;;;;;;;1.30;0.77;;;;;;;;;;4992720;28;20308;-79
2024/01/29 12:25:45;;;;;;;0.25;0.25;;;;;;;;;;4990461;28;20058;-79
2024/01/29 12:28:15;;;;;;;1.20;1.15;;;;;;;;;;4983004;28;20057;-80
2024/01/29 12:30:52;;;;;;;0.75;0.50;;;;;;;;;;4987544;28;20042;-80
2024/01/29 12:33:29;;;;;;;0.52;0.52;;;;;;;;;;4992915;28;20627;-80
2024/01/29 12:36:18;;;;;;;0.20;0.20;;;;;;;;;;4968076;28;20059;-81
2024/01/29 12:38:53;;;;;;;0.10;0.10;;;;;;;;;;4936339;28;20050;-80
2024/01/29 12:41:22;;;;;;;1.00;1.00;;;;;;;;;;4952438;28;20122;-81
2024/01/29 12:43:50;;;;;;;2.92;1.02;;;;;;;;;;4948526;28;20039;-81
2024/01/29 12:46:19;;;;;;;0.95;0.77;;;;;;;;;;4951976;28;20035;-81
2024/01/29 12:48:53;;;;;;;0.95;0.93;;;;;;;;;;4946663;28;20086;-81
2024/01/29 12:51:21;;;;;;;0.10;0.10;;;;;;;;;;4965185;28;20047;-81
2024/01/29 12:53:58;;;;;;;0.10;0.10;;;;;;;;;;4939752;28;20130;-81
2024/01/29 12:56:27;;;;;;;0.10;0.10;;;;;;;;;;4963334;28;20054;-81
2024/01/29 12:58:55;;;;;;;0.70;0.70;;;;;;;;;;4939551;28;20036;-81
2024/01/29 13:01:22;;;;;;;0.40;0.40;;;;;;;;;;4940058;28;20517;-81
2024/01/29 13:03:50;;;;;;;0.20;0.20;;;;;;;;;;4945917;28;20095;-81
2024/01/29 13:06:17;;;;;;;0.10;0.10;;;;;;;;;;4951521;28;20133;-81
2024/01/29 13:08:45;;;;;;;1.83;1.67;;;;;;;;;;4951831;28;20080;-81
2024/01/29 13:11:13;;;;;;;0.10;0.10;;;;;;;;;;4946698;28;20142;-81
2024/01/29 13:13:40;;;;;;;0.57;0.57;;;;;;;;;;4953001;28;20211;-81
2024/01/29 13:16:08;;;;;;;0.10;0.10;;;;;;;;;;4948209;28;20054;-81
2024/01/29 13:18:36;;;;;;;0.00;0.00;;;;;;;;;;4955400;28;20054;-81
2024/01/29 13:21:04;;;;;;;0.22;0.22;;;;;;;;;;4963783;28;20047;-81
2024/01/29 13:23:35;;;;;;;0.28;0.28;;;;;;;;;;4959998;28;20408;-81
2024/01/29 13:26:03;;;;;;;0.73;0.73;;;;;;;;;;4971563;28;20054;-81
2024/01/29 13:28:31;;;;;;;0.43;0.43;;;;;;;;;;4952626;28;20059;-81
2024/01/29 13:30:58;;;;;;;1.27;1.08;;;;;;;;;;4964264;28;20106;-81
2024/01/29 13:33:26;;;;;;;1.08;1.02;;;;;;;;;;4948097;28;20094;-81
2024/01/29 13:35:55;;;;;;;0.20;0.20;;;;;;;;;;4951534;28;20059;-81
2024/01/29 13:38:22;;;;;;;0.10;0.10;;;;;;;;;;4958208;28;20098;-81
2024/01/29 13:40:52;;;;;;;0.50;0.50;;;;;;;;;;4958610;28;20052;-81
2024/01/29 13:43:19;;;;;;;0.20;0.20;;;;;;;;;;4955493;28;20051;-81
2024/01/29 13:45:48;;;;;;;1.50;1.02;;;;;;;;;;4962312;28;20049;-82
2024/01/29 13:48:15;;;;;;;3.97;0.45;;;;;;;;;;4971536;28;20044;-80
2024/01/29 13:50:44;;;;;;;0.10;0.10;;;;;;;;;;4959590;28;20046;-81
2024/01/29 13:53:12;;;;;;;0.30;0.30;;;;;;;;;;4952203;28;20067;-81
2024/01/29 13:55:39;;;;;;;0.50;0.50;;;;;;;;;;4955472;28;20205;-82
2024/01/29 13:58:07;;;;;;;0.20;0.20;;;;;;;;;;4948878;28;20047;-82
2024/01/29 14:00:34;;;;;;;1.30;1.30;;;;;;;;;;4954718;28;20051;-81
2024/01/29 14:03:04;;;;;;;0.10;0.10;;;;;;;;;;4948782;28;20113;-81
2024/01/29 14:05:31;;;;;;;0.40;0.40;;;;;;;;;;4956469;28;20508;-81
2024/01/29 14:07:59;;;;;;;0.52;0.52;;;;;;;;;;4943124;28;20074;-80
2024/01/29 14:10:29;;;;;;;0.20;0.20;;;;;;;;;;4942670;28;29160;-81
2024/01/29 14:12:56;;;;;;;0.20;0.20;;;;;;;;;;4955141;28;20035;-81
2024/01/29 14:15:24;;;;;;;1.33;1.23;;;;;;;;;;4951837;28;20050;-81
2024/01/29 14:17:51;;;;;;;1.10;1.00;;;;;;;;;;4967839;28;20200;-82
2024/01/29 14:20:19;;;;;;;0.25;0.25;;;;;;;;;;4954408;28;20073;-81
2024/01/29 14:22:51;;;;;;;0.52;0.52;;;;;;;;;;4955646;28;20489;-81
2024/01/29 14:25:18;;;;;;;0.68;0.68;;;;;;;;;;4951085;28;20083;-81
2024/01/29 14:27:47;;;;;;;2.38;0.60;;;;;;;;;;4967262;28;20078;-81
2024/01/29 14:30:17;;;;;;;0.65;0.65;;;;;;;;;;4955631;28;20833;-81
2024/01/29 14:32:49;;;;;;;0.65;0.65;;;;;;;;;;4952291;28;20039;-81
2024/01/29 14:35:18;;;;;;;0.85;0.85;;;;;;;;;;4967261;28;20043;-81
2024/01/29 14:37:46;;;;;;;1.05;0.65;;;;;;;;;;4949647;28;20082;-81
2024/01/29 14:40:13;;;;;;;0.63;0.63;;;;;;;;;;4955106;28;20047;-81
2024/01/29 14:42:41;;;;;;;1.05;0.98;;;;;;;;;;4949822;28;20130;-81
2024/01/29 14:45:10;;;;;;;0.30;0.30;;;;;;;;;;4946787;28;20078;-81
2024/01/29 14:47:37;;;;;;;0.65;0.65;;;;;;;;;;4943356;28;20054;-81
2024/01/29 14:50:05;;;;;;;0.22;0.22;;;;;;;;;;4956504;28;20043;-81